KLUF/LUF METAR and TAF weather

Enter ICAO airport designator
Station Type Date Time Source
KLUF METAR 2019/08/26 06:58 UTC NOAA

KLUF 260658Z AUTO 23006KT 10SM CLR 34/18 A2980 RMK AO2 SLP075 T03410177 403950281 $


Station Type Date Time Source
KLUF Decoded METAR 2019/08/26 06:58 UTC NOAA

Station name not available
Aug 26, 2019 - 02:58 AM EDT / 2019.08.26 0658 UTC
Wind: from the SW (230 degrees) at 7 MPH (6 KT):0
Visibility: 10 mile(s):0
Sky conditions: clear
Temperature: 93.4 F (34.1 C)
Heat index: 94.8 F (34.9 C):1
Dew Point: 63.9 F (17.7 C)
Relative Humidity: 37%
Pressure (altimeter): 29.8 in. Hg (1009 hPa)
ob: KLUF 260658Z AUTO 23006KT 10SM CLR 34/18 A2980 RMK AO2 SLP075 T03410177 403950281
cycle: 7

Station Type Date Time Source
KLUF TAF 2019/08/23 20:26 UTC NOAA

TAF KLUF 232000Z 2320/2502 25009KT 9999 FEW120 FEW220 QNH2980INS
BECMG 2402/2403 VRB06KT 9999 FEW050 FEW120 FEW250 QNH2979INS
BECMG 2411/2412 31006KT 9999 BKN050 QNH2968INS TX43/2321Z TN28/2412Z LAST NO
AMDS AFT 2323 NEXT 2604

Example: see airport list